sensor_id;sensor_type;location;lat;lon;timestamp;pressure;altitude;pressure_sealevel;temperature;humidity
16821;BME280;8527;49.740;6.604;2023-03-01T00:00:20;100800.91;;;-1.85;77.79
16821;BME280;8527;49.740;6.604;2023-03-01T00:05:28;100800.34;;;-1.93;77.79
16821;BME280;8527;49.740;6.604;2023-03-01T00:10:26;100801.56;;;-1.79;77.09
16821;BME280;8527;49.740;6.604;2023-03-01T00:15:32;100798.16;;;-1.81;78.10
16821;BME280;8527;49.740;6.604;2023-03-01T00:20:32;100804.28;;;-1.82;78.60
16821;BME280;8527;49.740;6.604;2023-03-01T00:25:30;100803.75;;;-1.91;76.93
16821;BME280;8527;49.740;6.604;2023-03-01T03:03:54;100694.44;;;-2.10;80.64
16821;BME280;8527;49.740;6.604;2023-03-01T03:08:53;100701.53;;;-2.14;81.63
16821;BME280;8527;49.740;6.604;2023-03-01T03:13:51;100695.16;;;-2.06;82.06
16821;BME280;8527;49.740;6.604;2023-03-01T03:18:50;100682.84;;;-2.01;81.08
16821;BME280;8527;49.740;6.604;2023-03-01T03:23:51;100675.41;;;-2.10;81.91
16821;BME280;8527;49.740;6.604;2023-03-01T03:28:52;100670.94;;;-2.07;81.75
16821;BME280;8527;49.740;6.604;2023-03-01T03:33:50;100659.53;;;-2.04;81.73
16821;BME280;8527;49.740;6.604;2023-03-01T03:38:51;100657.81;;;-2.04;82.10
16821;BME280;8527;49.740;6.604;2023-03-01T03:43:50;100645.63;;;-2.03;81.91
16821;BME280;8527;49.740;6.604;2023-03-01T03:48:49;100650.31;;;-2.12;81.21
16821;BME280;8527;49.740;6.604;2023-03-01T03:53:52;100644.41;;;-2.15;82.04
16821;BME280;8527;49.740;6.604;2023-03-01T03:58:51;100637.91;;;-2.26;82.31
16821;BME280;8527;49.740;6.604;2023-03-01T04:03:49;100625.09;;;-2.30;83.53
16821;BME280;8527;49.740;6.604;2023-03-01T04:08:52;100637.16;;;-2.29;82.48
16821;BME280;8527;49.740;6.604;2023-03-01T04:13:57;100633.59;;;-2.27;82.86
16821;BME280;8527;49.740;6.604;2023-03-01T04:18:55;100631.47;;;-2.17;82.31
16821;BME280;8527;49.740;6.604;2023-03-01T04:23:57;100632.47;;;-2.19;82.48
16821;BME280;8527;49.740;6.604;2023-03-01T04:28:57;100627.44;;;-2.24;82.12
16821;BME280;8527;49.740;6.604;2023-03-01T04:33:57;100631.78;;;-2.24;82.06
16821;BME280;8527;49.740;6.604;2023-03-01T04:38:58;100622.25;;;-2.24;81.50
16821;BME280;8527;49.740;6.604;2023-03-01T04:44:07;100628.53;;;-2.30;82.14
16821;BME280;8527;49.740;6.604;2023-03-01T04:49:06;100619.97;;;-2.32;83.53
16821;BME280;8527;49.740;6.604;2023-03-01T04:54:07;100615.59;;;-2.31;82.98
16821;BME280;8527;49.740;6.604;2023-03-01T04:59:06;100611.25;;;-2.31;83.32
16821;BME280;8527;49.740;6.604;2023-03-01T05:04:05;100615.41;;;-2.27;83.53
16821;BME280;8527;49.740;6.604;2023-03-01T05:09:12;100612.22;;;-2.33;82.87
16821;BME280;8527;49.740;6.604;2023-03-01T05:14:10;100610.41;;;-2.31;83.19
16821;BME280;8527;49.740;6.604;2023-03-01T05:19:09;100608.72;;;-2.32;82.50
16821;BME280;8527;49.740;6.604;2023-03-01T05:24:13;100601.31;;;-2.21;82.60
16821;BME280;8527;49.740;6.604;2023-03-01T05:29:11;100603.25;;;-1.85;82.38
16821;BME280;8527;49.740;6.604;2023-03-01T05:34:09;100597.00;;;-1.80;82.32
16821;BME280;8527;49.740;6.604;2023-03-01T05:39:08;100594.97;;;-1.74;82.12
16821;BME280;8527;49.740;6.604;2023-03-01T05:44:09;100588.00;;;-1.73;81.95
16821;BME280;8527;49.740;6.604;2023-03-01T05:49:08;100581.25;;;-1.77;82.47
16821;BME280;8527;49.740;6.604;2023-03-01T05:54:06;100585.56;;;-1.76;82.28
16821;BME280;8527;49.740;6.604;2023-03-01T05:59:05;100590.47;;;-1.70;82.03
16821;BME280;8527;49.740;6.604;2023-03-01T06:04:07;100598.69;;;-1.60;81.40
16821;BME280;8527;49.740;6.604;2023-03-01T06:09:08;100593.84;;;-1.49;80.58
16821;BME280;8527;49.740;6.604;2023-03-01T06:14:07;100603.34;;;-1.48;80.12
16821;BME280;8527;49.740;6.604;2023-03-01T06:19:11;100599.78;;;-1.45;79.99
16821;BME280;8527;49.740;6.604;2023-03-01T06:24:09;100606.66;;;-1.44;79.93
16821;BME280;8527;49.740;6.604;2023-03-01T06:29:10;100610.13;;;-1.44;79.70
16821;BME280;8527;49.740;6.604;2023-03-01T06:34:12;100632.75;;;-1.46;79.93
16821;BME280;8527;49.740;6.604;2023-03-01T06:39:11;100617.72;;;-1.39;79.74
16821;BME280;8527;49.740;6.604;2023-03-01T06:44:09;100611.72;;;-1.41;79.87
16821;BME280;8527;49.740;6.604;2023-03-01T06:49:13;100621.09;;;-1.37;79.63
16821;BME280;8527;49.740;6.604;2023-03-01T06:54:13;100620.19;;;-1.36;79.69
16821;BME280;8527;49.740;6.604;2023-03-01T06:59:13;100608.66;;;-1.30;79.50
16821;BME280;8527;49.740;6.604;2023-03-01T07:04:14;100608.44;;;-1.25;79.24
16821;BME280;8527;49.740;6.604;2023-03-01T07:09:17;100597.03;;;-1.23;79.09
16821;BME280;8527;49.740;6.604;2023-03-01T07:14:17;100594.16;;;-1.17;78.68
16821;BME280;8527;49.740;6.604;2023-03-01T07:19:18;100586.03;;;-1.10;78.59
16821;BME280;8527;49.740;6.604;2023-03-01T07:24:16;100578.22;;;-1.10;78.79
16821;BME280;8527;49.740;6.604;2023-03-01T07:29:20;100578.31;;;-1.12;78.50
16821;BME280;8527;49.740;6.604;2023-03-01T07:34:21;100583.22;;;-1.06;78.37
16821;BME280;8527;49.740;6.604;2023-03-01T07:39:19;100593.34;;;-1.00;78.12
16821;BME280;8527;49.740;6.604;2023-03-01T07:44:18;100583.50;;;-0.93;77.66
16821;BME280;8527;49.740;6.604;2023-03-01T07:49:16;100585.78;;;-0.87;77.51
16821;BME280;8527;49.740;6.604;2023-03-01T07:54:21;100587.94;;;-0.77;77.26
16821;BME280;8527;49.740;6.604;2023-03-01T07:59:22;100570.25;;;-0.53;76.67
16821;BME280;8527;49.740;6.604;2023-03-01T08:04:24;100571.09;;;-0.52;76.10
16821;BME280;8527;49.740;6.604;2023-03-01T08:09:28;100578.00;;;-0.51;75.67
16821;BME280;8527;49.740;6.604;2023-03-01T08:14:26;100571.41;;;-0.41;76.04
16821;BME280;8527;49.740;6.604;2023-03-01T08:19:25;100564.13;;;-0.52;76.27
16821;BME280;8527;49.740;6.604;2023-03-01T08:24:25;100560.81;;;-0.38;76.36
16821;BME280;8527;49.740;6.604;2023-03-01T08:29:30;100563.81;;;-0.28;75.58
16821;BME280;8527;49.740;6.604;2023-03-01T08:34:29;100564.56;;;-0.26;75.52
16821;BME280;8527;49.740;6.604;2023-03-01T08:39:27;100566.53;;;-0.13;74.77
16821;BME280;8527;49.740;6.604;2023-03-01T08:44:28;100562.53;;;-0.03;74.15
16821;BME280;8527;49.740;6.604;2023-03-01T08:49:33;100560.44;;;0.21;73.27
16821;BME280;8527;49.740;6.604;2023-03-01T08:54:32;100560.69;;;0.33;72.51
16821;BME280;8527;49.740;6.604;2023-03-01T08:59:33;100557.00;;;0.69;71.96
16821;BME280;8527;49.740;6.604;2023-03-01T09:04:35;100551.19;;;0.64;70.88
16821;BME280;8527;49.740;6.604;2023-03-01T09:09:34;100539.63;;;0.68;70.66
16821;BME280;8527;49.740;6.604;2023-03-01T09:14:35;100555.63;;;0.94;69.85
16821;BME280;8527;49.740;6.604;2023-03-01T09:19:37;100521.78;;;0.92;69.20
16821;BME280;8527;49.740;6.604;2023-03-01T09:24:38;100518.25;;;1.24;68.33
16821;BME280;8527;49.740;6.604;2023-03-01T09:29:40;100523.31;;;1.42;67.73
16821;BME280;8527;49.740;6.604;2023-03-01T09:34:39;100512.03;;;1.41;67.57
16821;BME280;8527;49.740;6.604;2023-03-01T09:39:49;100510.13;;;1.29;67.10
16821;BME280;8527;49.740;6.604;2023-03-01T09:44:52;100502.69;;;1.51;66.41
16821;BME280;8527;49.740;6.604;2023-03-01T09:50:03;100502.94;;;1.77;66.17
16821;BME280;8527;49.740;6.604;2023-03-01T09:55:09;100500.38;;;2.19;64.60
16821;BME280;8527;49.740;6.604;2023-03-01T10:00:19;100492.59;;;2.87;62.46
16821;BME280;8527;49.740;6.604;2023-03-01T10:05:38;100512.59;;;2.75;62.43
16821;BME280;8527;49.740;6.604;2023-03-01T10:10:40;100504.34;;;2.54;62.36
16821;BME280;8527;49.740;6.604;2023-03-01T10:15:47;100478.09;;;3.09;61.76
16821;BME280;8527;49.740;6.604;2023-03-01T10:20:53;100476.56;;;2.79;62.18
16821;BME280;8527;49.740;6.604;2023-03-01T10:26:01;100481.53;;;2.69;61.73
16821;BME280;8527;49.740;6.604;2023-03-01T10:31:12;100466.22;;;3.03;61.18
16821;BME280;8527;49.740;6.604;2023-03-01T10:36:12;100457.25;;;3.33;60.69
16821;BME280;8527;49.740;6.604;2023-03-01T10:41:10;100460.59;;;3.74;59.82
16821;BME280;8527;49.740;6.604;2023-03-01T10:46:22;100453.69;;;3.86;59.42
16821;BME280;8527;49.740;6.604;2023-03-01T10:51:23;100446.72;;;3.85;59.21
16821;BME280;8527;49.740;6.604;2023-03-01T10:56:28;100450.78;;;4.02;59.03
16821;BME280;8527;49.740;6.604;2023-03-01T11:01:33;100446.03;;;3.70;59.87
16821;BME280;8527;49.740;6.604;2023-03-01T11:06:32;100424.81;;;4.24;58.63
16821;BME280;8527;49.740;6.604;2023-03-01T11:11:33;100428.16;;;4.74;57.89
16821;BME280;8527;49.740;6.604;2023-03-01T11:16:40;100421.50;;;4.57;58.32
16821;BME280;8527;49.740;6.604;2023-03-01T11:21:59;100409.72;;;4.39;57.54
16821;BME280;8527;49.740;6.604;2023-03-01T11:27:02;100391.59;;;4.83;58.22
16821;BME280;8527;49.740;6.604;2023-03-01T11:32:09;100388.25;;;4.45;57.93
16821;BME280;8527;49.740;6.604;2023-03-01T11:37:16;100392.00;;;4.54;57.87
16821;BME280;8527;49.740;6.604;2023-03-01T11:42:37;100375.13;;;4.92;57.48
16821;BME280;8527;49.740;6.604;2023-03-01T11:47:58;100373.50;;;5.37;56.77
16821;BME280;8527;49.740;6.604;2023-03-01T11:53:01;100360.84;;;5.19;56.87
16821;BME280;8527;49.740;6.604;2023-03-01T11:58:17;100335.72;;;5.03;57.00
16821;BME280;8527;49.740;6.604;2023-03-01T12:03:32;100345.66;;;5.23;56.20
16821;BME280;8527;49.740;6.604;2023-03-01T12:08:36;100342.16;;;4.88;57.51
16821;BME280;8527;49.740;6.604;2023-03-01T12:13:51;100324.00;;;5.07;57.13
16821;BME280;8527;49.740;6.604;2023-03-01T12:19:12;100329.16;;;5.20;56.43
16821;BME280;8527;49.740;6.604;2023-03-01T12:24:36;100333.69;;;5.41;56.57
16821;BME280;8527;49.740;6.604;2023-03-01T12:29:43;100309.28;;;5.28;56.84
16821;BME280;8527;49.740;6.604;2023-03-01T12:35:11;100295.31;;;5.39;56.12
16821;BME280;8527;49.740;6.604;2023-03-01T12:40:38;100280.84;;;5.44;55.95
16821;BME280;8527;49.740;6.604;2023-03-01T12:45:51;100266.91;;;5.65;55.97
16821;BME280;8527;49.740;6.604;2023-03-01T12:51:01;100265.59;;;5.59;56.11
16821;BME280;8527;49.740;6.604;2023-03-01T12:56:15;100272.41;;;5.62;55.13
16821;BME280;8527;49.740;6.604;2023-03-01T13:01:25;100245.81;;;5.76;54.93
16821;BME280;8527;49.740;6.604;2023-03-01T13:06:33;100247.06;;;6.05;54.40
16821;BME280;8527;49.740;6.604;2023-03-01T13:11:36;100230.03;;;5.98;54.68
16821;BME280;8527;49.740;6.604;2023-03-01T13:16:41;100227.38;;;6.09;54.76
16821;BME280;8527;49.740;6.604;2023-03-01T13:21:48;100238.31;;;6.04;54.64
16821;BME280;8527;49.740;6.604;2023-03-01T13:27:11;100207.34;;;6.18;54.64
16821;BME280;8527;49.740;6.604;2023-03-01T13:32:27;100199.56;;;6.38;53.74
16821;BME280;8527;49.740;6.604;2023-03-01T13:37:32;100209.03;;;6.40;53.79
16821;BME280;8527;49.740;6.604;2023-03-01T13:42:43;100221.47;;;6.59;53.56
16821;BME280;8527;49.740;6.604;2023-03-01T13:47:46;100215.69;;;6.44;53.69
16821;BME280;8527;49.740;6.604;2023-03-01T13:52:55;100223.59;;;6.44;54.00
16821;BME280;8527;49.740;6.604;2023-03-01T13:58:13;100240.25;;;6.24;53.43
16821;BME280;8527;49.740;6.604;2023-03-01T14:03:15;100198.97;;;6.55;52.91
16821;BME280;8527;49.740;6.604;2023-03-01T14:08:22;100209.56;;;6.65;52.77
16821;BME280;8527;49.740;6.604;2023-03-01T14:13:35;100204.38;;;6.54;53.13
16821;BME280;8527;49.740;6.604;2023-03-01T14:18:47;100199.19;;;6.73;52.55
16821;BME280;8527;49.740;6.604;2023-03-01T14:23:53;100180.34;;;6.78;52.75
16821;BME280;8527;49.740;6.604;2023-03-01T14:28:55;100193.28;;;6.60;52.81
16821;BME280;8527;49.740;6.604;2023-03-01T14:33:58;100176.31;;;6.74;52.63
16821;BME280;8527;49.740;6.604;2023-03-01T14:39:15;100184.56;;;6.59;52.59
16821;BME280;8527;49.740;6.604;2023-03-01T14:44:17;100158.06;;;6.61;52.92
16821;BME280;8527;49.740;6.604;2023-03-01T14:49:22;100157.00;;;6.73;52.23
16821;BME280;8527;49.740;6.604;2023-03-01T14:54:36;100153.69;;;6.81;52.60
16821;BME280;8527;49.740;6.604;2023-03-01T14:59:37;100155.63;;;6.79;51.86
16821;BME280;8527;49.740;6.604;2023-03-01T15:04:37;100162.38;;;6.62;51.88
16821;BME280;8527;49.740;6.604;2023-03-01T15:09:39;100159.78;;;6.72;51.60
16821;BME280;8527;49.740;6.604;2023-03-01T15:14:40;100147.03;;;6.77;51.36
16821;BME280;8527;49.740;6.604;2023-03-01T15:19:41;100141.47;;;6.80;51.08
16821;BME280;8527;49.740;6.604;2023-03-01T15:24:52;100138.69;;;6.72;51.30
16821;BME280;8527;49.740;6.604;2023-03-01T15:29:58;100139.38;;;6.74;50.92
16821;BME280;8527;49.740;6.604;2023-03-01T15:35:01;100152.69;;;6.72;51.28
16821;BME280;8527;49.740;6.604;2023-03-01T15:40:23;100138.25;;;6.67;51.23
16821;BME280;8527;49.740;6.604;2023-03-01T15:45:28;100141.72;;;6.67;51.62
16821;BME280;8527;49.740;6.604;2023-03-01T15:50:34;100143.50;;;6.67;50.97
16821;BME280;8527;49.740;6.604;2023-03-01T15:55:43;100131.00;;;6.59;50.81
16821;BME280;8527;49.740;6.604;2023-03-01T16:00:48;100136.41;;;6.57;50.36
16821;BME280;8527;49.740;6.604;2023-03-01T16:05:53;100137.38;;;6.56;49.85
16821;BME280;8527;49.740;6.604;2023-03-01T16:10:54;100134.31;;;6.51;49.53
16821;BME280;8527;49.740;6.604;2023-03-01T16:15:59;100134.84;;;6.45;49.24
16821;BME280;8527;49.740;6.604;2023-03-01T16:21:02;100125.00;;;6.47;49.08
16821;BME280;8527;49.740;6.604;2023-03-01T16:26:06;100138.69;;;6.41;49.52
16821;BME280;8527;49.740;6.604;2023-03-01T16:31:05;100137.03;;;6.40;49.15
16821;BME280;8527;49.740;6.604;2023-03-01T16:36:07;100134.78;;;6.35;49.63
16821;BME280;8527;49.740;6.604;2023-03-01T16:41:14;100142.00;;;6.33;48.89
16821;BME280;8527;49.740;6.604;2023-03-01T16:46:14;100142.25;;;6.30;48.96
16821;BME280;8527;49.740;6.604;2023-03-01T16:51:15;100141.78;;;6.25;49.42
16821;BME280;8527;49.740;6.604;2023-03-01T16:56:17;100150.50;;;6.15;49.43
16821;BME280;8527;49.740;6.604;2023-03-01T17:01:17;100152.09;;;6.07;49.76
16821;BME280;8527;49.740;6.604;2023-03-01T17:06:20;100163.66;;;5.94;50.36
16821;BME280;8527;49.740;6.604;2023-03-01T17:11:22;100158.63;;;5.91;50.15
16821;BME280;8527;49.740;6.604;2023-03-01T17:16:21;100168.13;;;5.82;50.62
16821;BME280;8527;49.740;6.604;2023-03-01T17:21:22;100162.31;;;5.67;51.57
16821;BME280;8527;49.740;6.604;2023-03-01T17:26:22;100164.19;;;5.55;53.47
16821;BME280;8527;49.740;6.604;2023-03-01T17:31:24;100162.31;;;5.34;55.04
16821;BME280;8527;49.740;6.604;2023-03-01T17:36:28;100170.50;;;5.09;55.69
16821;BME280;8527;49.740;6.604;2023-03-01T17:41:31;100179.72;;;5.03;57.52
16821;BME280;8527;49.740;6.604;2023-03-01T17:46:32;100178.66;;;4.71;58.42
16821;BME280;8527;49.740;6.604;2023-03-01T17:51:36;100191.81;;;4.60;59.43
16821;BME280;8527;49.740;6.604;2023-03-01T17:56:37;100189.78;;;4.52;60.01
16821;BME280;8527;49.740;6.604;2023-03-01T18:01:39;100190.50;;;4.43;59.53
16821;BME280;8527;49.740;6.604;2023-03-01T18:06:38;100192.75;;;4.25;60.22
16821;BME280;8527;49.740;6.604;2023-03-01T18:11:40;100198.78;;;4.14;60.62
16821;BME280;8527;49.740;6.604;2023-03-01T18:16:39;100199.22;;;3.96;60.51
16821;BME280;8527;49.740;6.604;2023-03-01T18:21:37;100198.84;;;3.89;61.14
16821;BME280;8527;49.740;6.604;2023-03-01T18:26:44;100195.38;;;3.89;60.50
16821;BME280;8527;49.740;6.604;2023-03-01T18:31:42;100175.25;;;3.65;61.45
16821;BME280;8527;49.740;6.604;2023-03-01T18:36:41;100160.06;;;3.57;60.87
16821;BME280;8527;49.740;6.604;2023-03-01T18:41:46;100170.38;;;3.72;59.03
16821;BME280;8527;49.740;6.604;2023-03-01T18:46:47;100169.13;;;3.89;59.03
16821;BME280;8527;49.740;6.604;2023-03-01T18:51:47;100164.13;;;3.86;59.48
16821;BME280;8527;49.740;6.604;2023-03-01T18:56:51;100160.63;;;3.85;58.12
16821;BME280;8527;49.740;6.604;2023-03-01T19:01:49;100177.16;;;4.10;56.73
16821;BME280;8527;49.740;6.604;2023-03-01T19:06:56;100177.41;;;4.07;56.30
16821;BME280;8527;49.740;6.604;2023-03-01T19:11:59;100169.31;;;3.74;59.24
16821;BME280;8527;49.740;6.604;2023-03-01T19:17:01;100179.00;;;3.85;57.53
16821;BME280;8527;49.740;6.604;2023-03-01T19:21:59;100179.44;;;3.68;59.58
16821;BME280;8527;49.740;6.604;2023-03-01T19:27:04;100182.97;;;3.91;56.20
16821;BME280;8527;49.740;6.604;2023-03-01T19:32:08;100191.03;;;3.76;57.39
16821;BME280;8527;49.740;6.604;2023-03-01T19:37:07;100185.31;;;3.71;56.84
16821;BME280;8527;49.740;6.604;2023-03-01T19:42:09;100182.81;;;3.81;56.66
16821;BME280;8527;49.740;6.604;2023-03-01T19:47:09;100180.81;;;3.85;55.55
16821;BME280;8527;49.740;6.604;2023-03-01T19:52:07;100182.31;;;4.12;54.54
16821;BME280;8527;49.740;6.604;2023-03-01T19:57:08;100185.28;;;4.07;54.52
16821;BME280;8527;49.740;6.604;2023-03-01T20:02:09;100183.09;;;3.89;54.61
16821;BME280;8527;49.740;6.604;2023-03-01T20:07:08;100192.69;;;3.77;55.44
16821;BME280;8527;49.740;6.604;2023-03-01T20:12:12;100191.03;;;3.76;55.30
16821;BME280;8527;49.740;6.604;2023-03-01T20:17:11;100179.44;;;3.68;55.79
16821;BME280;8527;49.740;6.604;2023-03-01T20:22:10;100185.44;;;3.45;57.20
16821;BME280;8527;49.740;6.604;2023-03-01T20:27:12;100189.50;;;3.12;60.95
16821;BME280;8527;49.740;6.604;2023-03-01T20:32:10;100194.81;;;2.86;62.61
16821;BME280;8527;49.740;6.604;2023-03-01T20:37:09;100190.03;;;2.80;63.45
16821;BME280;8527;49.740;6.604;2023-03-01T20:42:07;100207.63;;;2.52;64.80
16821;BME280;8527;49.740;6.604;2023-03-01T20:47:09;100199.34;;;2.58;64.54
16821;BME280;8527;49.740;6.604;2023-03-01T20:52:07;100200.00;;;2.36;64.01
16821;BME280;8527;49.740;6.604;2023-03-01T20:57:06;100203.13;;;2.41;63.78
16821;BME280;8527;49.740;6.604;2023-03-01T21:02:04;100192.34;;;2.46;62.64
16821;BME280;8527;49.740;6.604;2023-03-01T21:07:05;100207.31;;;2.31;63.83
16821;BME280;8527;49.740;6.604;2023-03-01T21:12:04;100198.94;;;2.38;62.63
16821;BME280;8527;49.740;6.604;2023-03-01T21:17:02;100198.31;;;2.22;63.71
16821;BME280;8527;49.740;6.604;2023-03-01T21:22:01;100193.59;;;2.27;62.66
16821;BME280;8527;49.740;6.604;2023-03-01T21:27:02;100194.00;;;2.34;61.97
16821;BME280;8527;49.740;6.604;2023-03-01T21:32:05;100197.06;;;2.41;62.02
16821;BME280;8527;49.740;6.604;2023-03-01T21:37:07;100182.81;;;2.45;60.07
16821;BME280;8527;49.740;6.604;2023-03-01T21:42:13;100175.47;;;2.24;60.80
16821;BME280;8527;49.740;6.604;2023-03-01T21:47:12;100184.81;;;2.41;59.38
16821;BME280;8527;49.740;6.604;2023-03-01T21:52:10;100175.06;;;2.43;59.60
16821;BME280;8527;49.740;6.604;2023-03-01T21:57:13;100180.06;;;2.20;61.86
16821;BME280;8527;49.740;6.604;2023-03-01T22:02:14;100173.81;;;2.23;60.40
16821;BME280;8527;49.740;6.604;2023-03-01T22:07:13;100177.56;;;2.19;60.38
16821;BME280;8527;49.740;6.604;2023-03-01T22:12:14;100160.38;;;2.02;63.42
16821;BME280;8527;49.740;6.604;2023-03-01T22:17:12;100159.31;;;1.78;63.87
16821;BME280;8527;49.740;6.604;2023-03-01T22:22:10;100154.56;;;1.71;65.99
16821;BME280;8527;49.740;6.604;2023-03-01T22:27:15;100156.50;;;1.54;66.93
16821;BME280;8527;49.740;6.604;2023-03-01T22:32:22;100157.22;;;1.43;67.42
16821;BME280;8527;49.740;6.604;2023-03-01T22:37:21;100161.94;;;1.23;66.51
16821;BME280;8527;49.740;6.604;2023-03-01T22:42:22;100162.50;;;1.29;66.23
16821;BME280;8527;49.740;6.604;2023-03-01T22:47:23;100172.09;;;1.28;67.55
16821;BME280;8527;49.740;6.604;2023-03-01T22:52:33;100162.34;;;1.17;67.29
16821;BME280;8527;49.740;6.604;2023-03-01T22:57:37;100156.91;;;1.20;67.44
16821;BME280;8527;49.740;6.604;2023-03-01T23:02:35;100155.22;;;0.92;68.12
16821;BME280;8527;49.740;6.604;2023-03-01T23:07:35;100151.03;;;0.89;69.85
16821;BME280;8527;49.740;6.604;2023-03-01T23:12:37;100150.00;;;0.77;69.45
16821;BME280;8527;49.740;6.604;2023-03-01T23:17:35;100140.69;;;0.73;70.54
16821;BME280;8527;49.740;6.604;2023-03-01T23:22:34;100149.28;;;0.75;69.36
16821;BME280;8527;49.740;6.604;2023-03-01T23:27:40;100144.88;;;0.90;66.81
16821;BME280;8527;49.740;6.604;2023-03-01T23:32:38;100141.28;;;1.06;65.67
16821;BME280;8527;49.740;6.604;2023-03-01T23:37:39;100139.56;;;1.19;64.43
16821;BME280;8527;49.740;6.604;2023-03-01T23:42:42;100131.06;;;1.16;65.02
16821;BME280;8527;49.740;6.604;2023-03-01T23:47:40;100130.78;;;1.20;64.74
16821;BME280;8527;49.740;6.604;2023-03-01T23:52:39;100132.09;;;1.28;64.18
16821;BME280;8527;49.740;6.604;2023-03-01T23:57:38;100138.34;;;1.25;64.06
